createdAt,value
2018-02-06T00:00:09.340Z,74.62
2018-02-06T00:02:37.658Z,74.95
2018-02-06T00:05:05.985Z,74.94
2018-02-06T00:07:34.352Z,75.00
2018-02-06T00:10:02.675Z,75.18
2018-02-06T00:12:31.018Z,75.16
2018-02-06T00:14:59.339Z,75.13
2018-02-06T00:17:27.703Z,75.21
2018-02-06T00:19:56.033Z,75.13
2018-02-06T00:25:25.100Z,75.41
2018-02-06T00:27:55.430Z,75.37
2018-02-06T00:30:23.772Z,75.74
2018-02-06T00:32:52.371Z,75.75
2018-02-06T00:35:20.717Z,76.00
2018-02-06T00:37:49.067Z,75.96
2018-02-06T00:40:17.433Z,75.89
2018-02-06T00:42:45.795Z,75.90
2018-02-06T00:45:14.277Z,75.79
2018-02-06T00:47:42.710Z,75.58
2018-02-06T00:50:11.063Z,75.62
2018-02-06T00:52:39.478Z,75.82
2018-02-06T00:55:07.813Z,75.64
2018-02-06T00:57:36.148Z,75.83
2018-02-06T01:00:04.570Z,75.96
2018-02-06T01:02:34.862Z,75.88
2018-02-06T01:05:03.378Z,75.86
2018-02-06T01:07:33.839Z,75.77
2018-02-06T01:10:02.161Z,75.96
2018-02-06T01:12:30.578Z,75.78
2018-02-06T01:15:00.939Z,75.71
2018-02-06T01:17:29.394Z,75.52
2018-02-06T01:19:58.626Z,75.30
2018-02-06T01:22:26.994Z,74.92
2018-02-06T01:24:55.330Z,74.89
2018-02-06T01:27:23.840Z,75.04
2018-02-06T01:29:56.566Z,74.99
2018-02-06T01:32:24.905Z,75.11
2018-02-06T01:34:53.258Z,75.00
2018-02-06T01:37:21.594Z,75.13
2018-02-06T01:39:50.896Z,75.02
2018-02-06T01:42:19.234Z,75.00
2018-02-06T01:44:47.582Z,74.75
2018-02-06T01:47:15.920Z,74.67
2018-02-06T01:49:56.079Z,75.05
2018-02-06T01:52:24.448Z,75.07
2018-02-06T01:54:52.799Z,75.33
2018-02-06T01:57:21.133Z,75.67
2018-02-06T01:59:53.303Z,75.71
2018-02-06T02:02:21.645Z,75.81
2018-02-06T02:04:49.991Z,75.84
2018-02-06T02:07:18.834Z,76.16
2018-02-06T02:09:47.214Z,76.32
2018-02-06T02:12:15.580Z,76.25
2018-02-06T02:14:43.914Z,76.14
2018-02-06T02:17:12.250Z,76.19
2018-02-06T02:19:41.543Z,76.37
2018-02-06T02:22:09.879Z,76.32
2018-02-06T02:24:38.236Z,76.49
2018-02-06T02:27:06.575Z,76.25
2018-02-06T02:29:34.910Z,76.52
2018-02-06T02:32:03.274Z,76.79
2018-02-06T02:34:31.609Z,76.62
2018-02-06T02:36:59.995Z,76.57
2018-02-06T02:39:32.440Z,76.65
2018-02-06T04:40:51.459Z,76.94
2018-02-06T04:43:19.789Z,77.02
2018-02-06T04:45:48.126Z,77.05
2018-02-06T04:48:16.458Z,77.03
2018-02-06T04:50:45.718Z,76.85
2018-02-06T04:53:14.090Z,76.79
2018-02-06T04:55:42.418Z,76.62
2018-02-06T04:58:10.766Z,76.38
2018-02-06T05:00:39.107Z,76.54
2018-02-06T05:03:07.483Z,76.49
2018-02-06T05:05:35.801Z,76.60
2018-02-06T05:08:04.160Z,76.61
2018-02-06T05:10:32.538Z,76.61
2018-02-06T05:13:00.859Z,76.62
2018-02-06T05:15:29.213Z,76.90
2018-02-06T05:17:58.219Z,77.04
2018-02-06T05:20:26.583Z,76.73
2018-02-06T05:22:55.003Z,76.78
2018-02-06T05:25:23.397Z,76.94
2018-02-06T05:27:51.824Z,77.05
2018-02-06T05:30:20.211Z,77.11
2018-02-06T05:32:48.594Z,76.97
2018-02-06T05:35:16.962Z,76.69
2018-02-06T05:37:45.295Z,76.31
2018-02-06T05:40:13.630Z,76.20
2018-02-06T05:42:41.986Z,76.40
2018-02-06T05:45:10.310Z,76.17
2018-02-06T05:47:38.668Z,76.42
2018-02-06T05:50:06.989Z,76.52
2018-02-06T05:52:35.357Z,76.80
2018-02-06T05:55:03.715Z,76.73
2018-02-06T05:57:32.028Z,76.65
2018-02-06T06:00:00.389Z,76.69
2018-02-06T06:02:28.720Z,76.92
2018-02-06T06:04:57.074Z,76.79
2018-02-06T06:07:25.414Z,77.04
2018-02-06T06:09:53.851Z,77.18
2018-02-06T06:12:22.168Z,77.14
2018-02-06T06:14:50.512Z,76.95
2018-02-06T06:17:18.830Z,76.73
2018-02-06T06:19:47.210Z,76.76
2018-02-06T06:22:15.544Z,76.93
2018-02-06T06:24:43.946Z,77.06
2018-02-06T06:27:12.269Z,77.42
2018-02-06T06:29:40.776Z,77.32
2018-02-06T06:32:09.093Z,77.20
2018-02-06T06:34:37.526Z,77.00
2018-02-06T06:37:05.941Z,77.28
2018-02-06T06:39:34.267Z,77.32
2018-02-06T06:42:02.623Z,77.03
2018-02-06T06:44:30.966Z,77.12
2018-02-06T06:46:59.323Z,77.14
2018-02-06T06:49:27.696Z,76.92
2018-02-06T06:51:56.671Z,76.97
2018-02-06T06:54:25.015Z,76.94
2018-02-06T06:56:53.412Z,76.45
2018-02-06T06:59:21.733Z,76.92
2018-02-06T07:01:50.148Z,76.64
2018-02-06T07:04:18.514Z,76.92
2018-02-06T07:06:46.818Z,76.92
2018-02-06T07:09:15.225Z,77.03
2018-02-06T07:11:43.627Z,76.99
2018-02-06T07:14:11.978Z,76.72
2018-02-06T07:16:40.305Z,76.88
2018-02-06T07:19:08.775Z,77.05
2018-02-06T07:21:37.131Z,76.92
2018-02-06T07:24:05.460Z,76.97
2018-02-06T07:26:33.835Z,77.01
2018-02-06T07:29:02.193Z,76.84
2018-02-06T07:31:30.656Z,76.66
2018-02-06T07:33:59.008Z,76.59
2018-02-06T07:36:27.390Z,76.28
2018-02-06T07:38:55.718Z,76.06
2018-02-06T07:41:24.110Z,75.83
2018-02-06T07:43:52.667Z,75.71
2018-02-06T07:46:20.978Z,75.69
2018-02-06T07:48:49.361Z,75.55
2018-02-06T07:51:17.685Z,75.46
2018-02-06T07:53:46.036Z,75.41
2018-02-06T07:56:14.413Z,75.04
2018-02-06T07:58:42.799Z,74.99
2018-02-06T08:01:11.185Z,74.95
2018-02-06T08:03:39.535Z,74.88
2018-02-06T08:06:07.971Z,75.15
2018-02-06T08:08:36.283Z,74.83
2018-02-06T08:11:04.635Z,74.54
2018-02-06T08:13:33.184Z,74.57
2018-02-06T08:16:01.567Z,74.67
2018-02-06T08:18:29.922Z,74.50
2018-02-06T08:20:58.282Z,74.59
2018-02-06T08:23:26.617Z,74.69
2018-02-06T08:25:54.997Z,74.40
2018-02-06T08:28:23.330Z,74.26
2018-02-06T08:30:51.732Z,74.16
2018-02-06T08:33:20.109Z,73.95
2018-02-06T08:35:48.423Z,73.84
2018-02-06T08:38:16.773Z,73.30
2018-02-06T08:40:45.093Z,73.18
2018-02-06T08:43:13.455Z,73.25
2018-02-06T08:45:41.768Z,73.41
2018-02-06T08:48:10.096Z,72.94
2018-02-06T08:50:38.445Z,72.58
2018-02-06T08:53:06.836Z,72.47
2018-02-06T08:55:35.192Z,72.45
2018-02-06T08:58:03.516Z,72.11
2018-02-06T09:00:31.826Z,72.01
2018-02-06T09:03:00.263Z,71.68
2018-02-06T09:05:28.566Z,71.62
2018-02-06T09:07:56.926Z,71.88
2018-02-06T09:10:25.239Z,71.01
2018-02-06T09:12:53.631Z,71.44
2018-02-06T09:15:21.935Z,71.16
2018-02-06T09:17:50.251Z,70.94
2018-02-06T09:20:18.599Z,70.98
2018-02-06T09:22:46.921Z,70.83
2018-02-06T09:25:15.333Z,70.76
2018-02-06T09:27:43.655Z,70.35
2018-02-06T09:30:11.999Z,70.46
2018-02-06T09:32:40.363Z,70.09
2018-02-06T09:35:08.772Z,69.98
2018-02-06T09:37:37.082Z,69.49
2018-02-06T09:40:05.604Z,69.34
2018-02-06T09:42:33.918Z,69.35
2018-02-06T09:45:02.332Z,68.89
2018-02-06T09:47:30.662Z,68.60
2018-02-06T09:49:58.990Z,68.00
2018-02-06T09:52:27.333Z,67.73
2018-02-06T09:54:55.649Z,67.70
2018-02-06T09:57:24.079Z,67.23
2018-02-06T09:59:52.419Z,66.87
2018-02-06T10:02:20.769Z,66.86
2018-02-06T10:04:49.191Z,66.73
2018-02-06T10:07:17.757Z,65.67
2018-02-06T10:09:46.085Z,66.30
2018-02-06T10:12:14.411Z,66.10
2018-02-06T10:14:42.758Z,65.90
2018-02-06T10:17:11.101Z,65.70
2018-02-06T10:19:39.422Z,65.37
2018-02-06T10:22:07.742Z,64.80
2018-02-06T10:24:36.082Z,64.41
2018-02-06T10:27:04.385Z,63.76
2018-02-06T10:29:32.850Z,64.10
2018-02-06T10:32:01.165Z,63.75
2018-02-06T10:34:29.491Z,63.74
2018-02-06T10:36:57.827Z,63.46
2018-02-06T10:39:26.166Z,63.17
2018-02-06T10:41:54.615Z,62.43
2018-02-06T10:44:22.933Z,62.03
2018-02-06T10:46:51.295Z,62.40
2018-02-06T10:49:19.610Z,61.55
2018-02-06T10:51:47.966Z,61.50
2018-02-06T10:54:16.343Z,61.80
2018-02-06T10:56:44.654Z,61.12
2018-02-06T10:59:13.019Z,60.56
2018-02-06T11:01:41.318Z,60.31
2018-02-06T11:04:09.661Z,60.65
2018-02-06T11:06:37.981Z,59.71
2018-02-06T11:09:06.325Z,59.29
2018-02-06T11:11:34.647Z,59.61
2018-02-06T11:14:02.983Z,59.10
2018-02-06T11:16:31.305Z,59.05
2018-02-06T11:18:59.652Z,59.91
2018-02-06T11:21:28.015Z,59.80
2018-02-06T11:23:56.649Z,59.37
2018-02-06T11:26:24.962Z,59.06
2018-02-06T11:28:53.281Z,58.47
2018-02-06T11:31:21.606Z,58.68
2018-02-06T11:33:49.926Z,57.69
2018-02-06T11:36:18.270Z,58.05
2018-02-06T11:38:46.582Z,58.27
2018-02-06T11:41:14.944Z,59.15
2018-02-06T11:43:43.303Z,60.05
2018-02-06T11:46:11.638Z,59.93
2018-02-06T11:48:39.965Z,61.06
2018-02-06T11:51:08.331Z,61.27
2018-02-06T11:53:36.681Z,61.71
2018-02-06T11:56:04.997Z,61.36
2018-02-06T11:58:33.341Z,60.72
2018-02-06T12:01:01.650Z,60.60
2018-02-06T12:03:30.065Z,59.74
2018-02-06T12:05:58.402Z,59.71
2018-02-06T12:08:26.738Z,58.88
2018-02-06T12:10:55.066Z,58.80
2018-02-06T12:13:23.413Z,58.03
2018-02-06T12:15:51.752Z,57.10
2018-02-06T12:18:20.082Z,56.83
2018-02-06T12:20:48.398Z,55.32
2018-02-06T12:23:16.742Z,54.71
2018-02-06T12:25:45.057Z,55.09
2018-02-06T12:28:13.418Z,55.58
2018-02-06T12:30:41.739Z,54.15
2018-02-06T12:33:10.055Z,54.95
2018-02-06T12:35:38.367Z,55.84
2018-02-06T12:38:06.698Z,56.00
2018-02-06T12:40:35.037Z,58.09
2018-02-06T12:43:03.358Z,59.16
2018-02-06T12:45:31.700Z,59.96
2018-02-06T12:48:00.024Z,59.49
2018-02-06T12:50:28.390Z,57.97
2018-02-06T12:52:56.706Z,56.31
2018-02-06T12:55:25.025Z,54.73
2018-02-06T12:57:53.384Z,55.15
2018-02-06T13:00:21.707Z,56.07
2018-02-06T13:02:50.045Z,55.29
2018-02-06T13:05:18.373Z,52.84
2018-02-06T13:07:46.709Z,52.18
2018-02-06T13:10:15.087Z,49.96
2018-02-06T13:12:43.478Z,45.23
2018-02-06T13:15:11.788Z,44.64
2018-02-06T13:17:40.130Z,44.24
2018-02-06T13:20:08.476Z,45.29
2018-02-06T13:22:36.808Z,44.83
2018-02-06T13:25:05.140Z,44.86
2018-02-06T13:27:33.461Z,43.94
2018-02-06T13:30:01.838Z,42.74
2018-02-06T13:32:30.150Z,42.84
2018-02-06T13:34:58.498Z,41.78
2018-02-06T13:37:26.821Z,43.48
2018-02-06T13:39:55.191Z,43.35
2018-02-06T13:42:23.513Z,43.54
2018-02-06T13:44:51.921Z,45.98
2018-02-06T13:47:20.241Z,44.37
2018-02-06T13:49:48.571Z,43.57
2018-02-06T13:52:16.917Z,44.57
2018-02-06T13:54:45.236Z,44.93
2018-02-06T13:57:13.586Z,43.06
2018-02-06T13:59:41.968Z,41.12
2018-02-06T14:02:10.319Z,40.15
2018-02-06T14:04:38.642Z,40.20
2018-02-06T14:07:07.003Z,38.56
2018-02-06T14:09:35.344Z,39.87
2018-02-06T14:12:03.702Z,41.40
2018-02-06T14:14:32.054Z,43.63
2018-02-06T14:17:00.454Z,44.39
2018-02-06T14:19:28.813Z,42.12
2018-02-06T14:21:57.135Z,43.06
2018-02-06T14:24:25.508Z,43.79
2018-02-06T14:26:53.845Z,39.89
2018-02-06T14:29:22.189Z,40.67
2018-02-06T14:31:50.529Z,41.19
2018-02-06T14:34:18.913Z,41.44
2018-02-06T14:36:47.247Z,42.13
2018-02-06T14:39:15.636Z,40.66
2018-02-06T14:41:43.967Z,39.97
2018-02-06T14:44:12.286Z,41.43
2018-02-06T14:46:40.636Z,41.85
2018-02-06T14:49:08.975Z,41.48
2018-02-06T14:51:37.306Z,40.95
2018-02-06T14:54:05.641Z,40.89
2018-02-06T14:56:34.006Z,41.92
2018-02-06T14:59:02.361Z,42.33
2018-02-06T15:01:30.725Z,42.81
2018-02-06T15:03:59.053Z,42.99
2018-02-06T15:06:27.391Z,45.57
2018-02-06T15:08:55.742Z,46.68
2018-02-06T15:11:24.059Z,47.66
2018-02-06T15:13:52.436Z,48.10
2018-02-06T15:16:20.769Z,47.85
2018-02-06T15:18:49.107Z,48.53
2018-02-06T15:21:17.462Z,48.78
2018-02-06T15:23:45.839Z,47.83
2018-02-06T15:26:14.200Z,48.34
2018-02-06T15:28:42.564Z,50.96
2018-02-06T15:31:10.887Z,50.43
2018-02-06T15:33:39.295Z,51.01
2018-02-06T15:36:07.630Z,51.69
2018-02-06T15:38:35.966Z,53.13
2018-02-06T15:41:04.302Z,53.28
2018-02-06T15:43:32.624Z,54.41
2018-02-06T15:46:00.982Z,55.24
2018-02-06T15:48:29.321Z,55.93
2018-02-06T15:50:57.667Z,56.71
2018-02-06T15:53:25.991Z,57.96
2018-02-06T15:55:54.377Z,58.30
2018-02-06T15:58:22.703Z,58.85
2018-02-06T16:00:51.075Z,59.48
2018-02-06T16:03:19.415Z,59.88
2018-02-06T16:05:47.835Z,60.73
2018-02-06T16:08:16.154Z,60.99
2018-02-06T16:10:44.478Z,61.53
2018-02-06T16:13:12.858Z,61.57
2018-02-06T16:15:41.318Z,61.87
2018-02-06T16:18:09.653Z,62.43
2018-02-06T16:20:37.980Z,63.15
2018-02-06T16:23:06.314Z,63.78
2018-02-06T16:25:34.653Z,63.87
2018-02-06T16:28:02.985Z,63.88
2018-02-06T16:30:31.315Z,64.11
2018-02-06T16:32:59.667Z,64.77
2018-02-06T16:35:27.987Z,65.28
2018-02-06T16:37:56.307Z,65.32
2018-02-06T16:40:24.649Z,65.46
2018-02-06T16:42:52.983Z,65.71
2018-02-06T16:45:21.348Z,66.44
2018-02-06T16:47:49.733Z,66.37
2018-02-06T16:50:18.071Z,66.70
2018-02-06T16:52:47.128Z,67.27
2018-02-06T16:55:15.466Z,67.59
2018-02-06T16:57:43.790Z,67.86
2018-02-06T17:00:12.107Z,68.55
2018-02-06T17:02:43.146Z,68.66
2018-02-06T17:05:11.510Z,68.85
2018-02-06T17:07:39.864Z,69.00
2018-02-06T17:10:08.230Z,69.11
2018-02-06T17:12:36.580Z,69.35
2018-02-06T17:15:04.953Z,69.62
2018-02-06T17:17:33.388Z,69.97
2018-02-06T17:20:01.694Z,69.98
2018-02-06T17:22:30.018Z,70.30
2018-02-06T17:24:58.499Z,69.84
2018-02-06T17:27:26.804Z,69.82
2018-02-06T17:29:55.153Z,69.79
2018-02-06T17:32:23.467Z,69.76
2018-02-06T17:34:51.803Z,69.60
2018-02-06T17:37:20.121Z,69.91
2018-02-06T17:39:48.492Z,69.67
2018-02-06T17:42:16.944Z,70.05
2018-02-06T17:44:45.242Z,70.25
2018-02-06T17:47:13.550Z,70.19
2018-02-06T17:49:41.910Z,70.35
2018-02-06T17:52:10.262Z,69.79
2018-02-06T17:54:38.594Z,70.07
2018-02-06T17:57:06.918Z,70.06
2018-02-06T17:59:35.244Z,70.10
2018-02-06T18:02:03.585Z,70.13
2018-02-06T18:04:31.889Z,70.72
2018-02-06T18:07:00.253Z,70.76
2018-02-06T18:09:28.713Z,71.12
2018-02-06T18:11:57.019Z,70.84
2018-02-06T18:14:25.364Z,71.10
2018-02-06T18:16:53.674Z,70.87
2018-02-06T18:19:22.000Z,71.14
2018-02-06T18:21:50.312Z,71.24
2018-02-06T18:24:18.718Z,71.39
2018-02-06T18:26:47.101Z,71.72
2018-02-06T18:29:15.490Z,71.90
2018-02-06T18:31:43.834Z,71.94
2018-02-06T18:34:12.158Z,71.87
2018-02-06T18:36:40.468Z,71.75
2018-02-06T18:39:08.809Z,71.75
2018-02-06T18:41:37.121Z,71.68
2018-02-06T18:44:05.531Z,71.93
2018-02-06T18:46:33.849Z,72.06
2018-02-06T18:49:02.176Z,71.71
2018-02-06T18:51:30.507Z,71.41
2018-02-06T18:53:58.831Z,71.53
2018-02-06T18:56:27.169Z,71.64
2018-02-06T18:58:55.544Z,72.26
2018-02-06T19:01:23.846Z,71.93
2018-02-06T19:03:52.178Z,72.47
2018-02-06T19:06:20.514Z,72.26
2018-02-06T19:08:48.918Z,71.95
2018-02-06T19:11:17.242Z,71.95
2018-02-06T19:13:45.556Z,72.47
2018-02-06T19:16:13.951Z,72.55
2018-02-06T19:18:42.285Z,72.81
2018-02-06T19:21:10.600Z,72.87
2018-02-06T19:23:38.915Z,72.15
2018-02-06T19:26:07.251Z,72.15
2018-02-06T19:28:35.596Z,72.24
2018-02-06T19:31:03.906Z,72.57
2018-02-06T19:33:32.230Z,72.69
2018-02-06T19:36:00.559Z,72.25
2018-02-06T19:38:28.882Z,72.14
2018-02-06T19:40:57.198Z,72.46
2018-02-06T19:43:25.537Z,73.00
2018-02-06T19:45:53.858Z,73.26
2018-02-06T19:48:22.175Z,73.59
2018-02-06T19:50:50.490Z,73.93
2018-02-06T19:53:18.839Z,73.67
2018-02-06T19:55:47.174Z,73.66
2018-02-06T19:58:15.492Z,73.42
2018-02-06T20:00:43.837Z,73.43
2018-02-06T20:03:12.259Z,73.73
2018-02-06T20:05:40.604Z,73.78
2018-02-06T20:08:08.931Z,74.19
2018-02-06T20:10:37.299Z,74.48
2018-02-06T20:13:05.604Z,74.20
2018-02-06T20:15:34.211Z,74.22
2018-02-06T20:18:02.544Z,73.76
2018-02-06T20:20:30.854Z,73.63
2018-02-06T20:22:59.196Z,73.43
2018-02-06T20:25:27.508Z,73.34
2018-02-06T20:27:55.894Z,73.24
2018-02-06T20:30:24.262Z,73.25
2018-02-06T20:32:52.569Z,73.20
2018-02-06T20:35:20.896Z,73.40
2018-02-06T20:37:49.226Z,73.41
2018-02-06T20:40:17.557Z,73.38
2018-02-06T20:42:45.905Z,73.59
2018-02-06T20:45:14.229Z,73.67
2018-02-06T20:47:42.579Z,73.75
2018-02-06T20:50:14.174Z,73.90
2018-02-06T20:52:42.515Z,74.01
2018-02-06T20:55:10.913Z,73.96
2018-02-06T20:57:39.245Z,74.70
2018-02-06T21:00:07.623Z,74.62
2018-02-06T21:02:35.939Z,74.26
2018-02-06T21:05:04.272Z,74.30
2018-02-06T21:07:32.590Z,74.33
2018-02-06T21:10:00.944Z,74.40
2018-02-06T21:12:29.260Z,74.59
2018-02-06T21:14:57.605Z,74.78
2018-02-06T21:17:26.006Z,74.79
2018-02-06T21:19:57.266Z,74.96
2018-02-06T21:22:25.586Z,75.03
2018-02-06T21:24:53.948Z,75.47
2018-02-06T21:27:22.288Z,75.59
2018-02-06T21:29:50.617Z,75.83
2018-02-06T21:32:18.973Z,75.98
2018-02-06T21:34:47.282Z,76.14
2018-02-06T21:37:15.675Z,76.43
2018-02-06T21:39:43.993Z,76.19
2018-02-06T21:42:12.369Z,76.24
2018-02-06T21:44:40.705Z,76.32
2018-02-06T21:47:09.025Z,76.45
2018-02-06T21:49:37.383Z,76.68
2018-02-06T21:52:05.718Z,76.93
2018-02-06T21:54:34.059Z,77.28
2018-02-06T21:57:02.402Z,77.62
2018-02-06T21:59:30.776Z,77.80
2018-02-06T22:01:59.194Z,77.93
2018-02-06T22:04:27.570Z,78.02
2018-02-06T22:06:55.900Z,78.02
2018-02-06T22:09:24.221Z,78.08
2018-02-06T22:11:52.566Z,78.30
2018-02-06T22:14:20.889Z,78.66
2018-02-06T22:16:49.250Z,78.91
2018-02-06T22:19:17.579Z,78.62
2018-02-06T22:21:45.933Z,78.79
2018-02-06T22:24:14.283Z,78.95
2018-02-06T22:26:42.624Z,79.17
2018-02-06T22:29:11.045Z,79.36
2018-02-06T22:31:39.399Z,79.57
2018-02-06T22:34:07.739Z,79.33
2018-02-06T22:36:36.195Z,79.19
2018-02-06T22:39:04.531Z,79.47
2018-02-06T22:41:32.956Z,79.62
2018-02-06T22:44:01.391Z,79.61
2018-02-06T22:46:29.650Z,79.87
2018-02-06T22:48:58.066Z,79.93
2018-02-06T22:51:26.405Z,79.92
2018-02-06T22:53:54.763Z,80.09
2018-02-06T22:56:23.078Z,80.07
2018-02-06T22:58:51.425Z,80.26
2018-02-06T23:01:19.857Z,80.29
2018-02-06T23:03:48.211Z,80.16
2018-02-06T23:06:16.543Z,80.25
2018-02-06T23:08:44.994Z,80.39
2018-02-06T23:11:13.327Z,80.62
2018-02-06T23:13:41.693Z,80.81
2018-02-06T23:16:10.040Z,80.85
2018-02-06T23:18:38.627Z,80.82
2018-02-06T23:21:06.971Z,80.53
2018-02-06T23:23:35.290Z,80.64
2018-02-06T23:26:03.632Z,80.81
2018-02-06T23:28:31.958Z,80.66
2018-02-06T23:31:00.309Z,80.71
2018-02-06T23:33:28.630Z,80.68
2018-02-06T23:35:56.985Z,80.93
2018-02-06T23:38:25.331Z,80.99
2018-02-06T23:40:53.698Z,81.00
2018-02-06T23:43:22.021Z,81.03
2018-02-06T23:45:50.349Z,81.10
2018-02-06T23:48:18.707Z,81.04
2018-02-06T23:50:47.034Z,81.19
2018-02-06T23:53:15.402Z,81.09
2018-02-06T23:55:43.763Z,81.12
2018-02-06T23:58:12.106Z,81.26
